Locust Grove, Virginia
Current Conditions -  °F | °C
As of 3:35 AM on Saturday 29 Nov 2014 (Local Time) from KCJR Reporting Station
Broken Clouds Broken Clouds  
Wind Chill: 27°   Ceiling: 8000
Heat Index: 27°   Visibility: 10mi
Dew Point: 25°   Wind: 0mph
Humidity: 93%   Direction: NA
Pressure: 30.3"   Gusts: NA
Location:  38.33°N, 77.77°W
Report Text: KCJR 290835Z AUTO 00000KT 10SM BKN080 M03/M04 A3030 RMK AO2
Loading
Personal Weather Stations






























Interactive Weather Map New forecast layout! Learn more

10-Day Weather Forecast

Advertisements
Track Severe Weather on mobile